sensor_id;sensor_type;location;lat;lon;timestamp;P1;P2;P0
83036;PMS1003;73029;43.592;1.458;2024-02-15T00:01:57;0.67;0.67;0.00
83036;PMS1003;73029;43.592;1.458;2024-02-15T00:04:22;2.00;2.00;1.00
83036;PMS1003;73029;43.592;1.458;2024-02-15T00:06:47;1.00;1.00;0.00
83036;PMS1003;73029;43.592;1.458;2024-02-15T00:09:13;1.00;1.00;0.33
83036;PMS1003;73029;43.592;1.458;2024-02-15T00:11:38;1.00;1.00;1.00
83036;PMS1003;73029;43.592;1.458;2024-02-15T00:14:04;2.33;1.00;1.00
83036;PMS1003;73029;43.592;1.458;2024-02-15T00:16:30;2.67;1.67;1.67
83036;PMS1003;73029;43.592;1.458;2024-02-15T00:18:55;1.00;1.00;1.00
83036;PMS1003;73029;43.592;1.458;2024-02-15T00:21:21;1.00;1.00;1.00
83036;PMS1003;73029;43.592;1.458;2024-02-15T00:23:48;1.67;1.67;1.00
83036;PMS1003;73029;43.592;1.458;2024-02-15T00:26:13;1.00;1.00;1.00
83036;PMS1003;73029;43.592;1.458;2024-02-15T00:28:41;1.00;1.00;0.33
83036;PMS1003;73029;43.592;1.458;2024-02-15T00:31:06;2.00;1.00;1.00
83036;PMS1003;73029;43.592;1.458;2024-02-15T00:33:33;1.67;1.67;1.00
83036;PMS1003;73029;43.592;1.458;2024-02-15T00:35:58;1.00;1.00;0.00
83036;PMS1003;73029;43.592;1.458;2024-02-15T00:38:24;2.00;2.00;1.00
83036;PMS1003;73029;43.592;1.458;2024-02-15T00:40:49;3.00;3.00;1.00
83036;PMS1003;73029;43.592;1.458;2024-02-15T00:43:14;1.00;1.00;1.00
83036;PMS1003;73029;43.592;1.458;2024-02-15T00:45:40;2.00;2.00;1.67
83036;PMS1003;73029;43.592;1.458;2024-02-15T00:48:06;4.00;3.00;2.00
83036;PMS1003;73029;43.592;1.458;2024-02-15T00:50:31;5.00;2.00;1.67
83036;PMS1003;73029;43.592;1.458;2024-02-15T00:52:57;1.33;1.33;1.00
83036;PMS1003;73029;43.592;1.458;2024-02-15T00:55:23;2.33;2.33;1.00
83036;PMS1003;73029;43.592;1.458;2024-02-15T00:57:48;4.00;3.67;2.00
83036;PMS1003;73029;43.592;1.458;2024-02-15T01:00:14;1.00;1.00;1.00
83036;PMS1003;73029;43.592;1.458;2024-02-15T01:02:39;1.00;1.00;1.00
83036;PMS1003;73029;43.592;1.458;2024-02-15T01:05:05;1.33;1.33;1.00
83036;PMS1003;73029;43.592;1.458;2024-02-15T01:07:30;3.33;2.67;2.00
83036;PMS1003;73029;43.592;1.458;2024-02-15T01:09:56;1.00;1.00;1.00
83036;PMS1003;73029;43.592;1.458;2024-02-15T01:12:21;1.33;1.33;1.00
83036;PMS1003;73029;43.592;1.458;2024-02-15T01:14:47;4.00;2.67;2.00
83036;PMS1003;73029;43.592;1.458;2024-02-15T01:17:12;2.00;2.00;2.00
83036;PMS1003;73029;43.592;1.458;2024-02-15T01:19:38;3.00;3.00;2.00
83036;PMS1003;73029;43.592;1.458;2024-02-15T01:22:04;4.00;3.00;2.00
83036;PMS1003;73029;43.592;1.458;2024-02-15T01:24:31;3.00;3.00;2.00
83036;PMS1003;73029;43.592;1.458;2024-02-15T01:26:57;2.33;2.33;2.00
83036;PMS1003;73029;43.592;1.458;2024-02-15T01:29:23;4.00;4.00;3.00
83036;PMS1003;73029;43.592;1.458;2024-02-15T01:31:50;4.00;2.67;2.00
83036;PMS1003;73029;43.592;1.458;2024-02-15T01:34:15;4.00;4.00;3.00
83036;PMS1003;73029;43.592;1.458;2024-02-15T01:36:40;6.00;2.67;2.33
83036;PMS1003;73029;43.592;1.458;2024-02-15T01:39:06;4.00;4.00;3.00
83036;PMS1003;73029;43.592;1.458;2024-02-15T01:41:31;3.33;3.33;3.00
83036;PMS1003;73029;43.592;1.458;2024-02-15T01:43:57;3.67;3.00;2.00
83036;PMS1003;73029;43.592;1.458;2024-02-15T01:46:22;5.33;5.33;3.00
83036;PMS1003;73029;43.592;1.458;2024-02-15T01:48:49;4.67;4.00;3.00
83036;PMS1003;73029;43.592;1.458;2024-02-15T01:51:15;6.00;5.00;4.00
83036;PMS1003;73029;43.592;1.458;2024-02-15T01:53:42;7.67;6.00;4.00
83036;PMS1003;73029;43.592;1.458;2024-02-15T01:56:07;4.00;3.00;3.00
83036;PMS1003;73029;43.592;1.458;2024-02-15T01:58:33;6.00;6.00;4.33
83036;PMS1003;73029;43.592;1.458;2024-02-15T02:01:00;5.67;5.33;4.00
83036;PMS1003;73029;43.592;1.458;2024-02-15T02:03:26;4.33;4.33;3.00
83036;PMS1003;73029;43.592;1.458;2024-02-15T02:05:52;6.00;4.00;4.00
83036;PMS1003;73029;43.592;1.458;2024-02-15T02:08:18;3.33;3.33;3.00
83036;PMS1003;73029;43.592;1.458;2024-02-15T02:10:43;7.67;5.33;4.00
83036;PMS1003;73029;43.592;1.458;2024-02-15T02:13:10;6.00;5.00;4.00
83036;PMS1003;73029;43.592;1.458;2024-02-15T02:15:36;4.33;4.33;2.33
83036;PMS1003;73029;43.592;1.458;2024-02-15T02:18:02;5.00;5.00;3.00
83036;PMS1003;73029;43.592;1.458;2024-02-15T02:20:32;4.67;4.67;4.00
83036;PMS1003;73029;43.592;1.458;2024-02-15T02:23:03;3.33;3.33;3.00
83036;PMS1003;73029;43.592;1.458;2024-02-15T02:25:39;6.00;6.00;4.33
83036;PMS1003;73029;43.592;1.458;2024-02-15T02:28:07;5.67;5.00;4.00
83036;PMS1003;73029;43.592;1.458;2024-02-15T02:30:33;5.67;5.00;3.00
83036;PMS1003;73029;43.592;1.458;2024-02-15T02:33:02;6.33;6.00;4.00
83036;PMS1003;73029;43.592;1.458;2024-02-15T02:35:30;6.67;6.67;5.33
83036;PMS1003;73029;43.592;1.458;2024-02-15T02:37:58;8.00;5.00;5.00
83036;PMS1003;73029;43.592;1.458;2024-02-15T02:40:23;5.00;4.00;2.00
83036;PMS1003;73029;43.592;1.458;2024-02-15T02:42:52;6.00;5.00;3.00
83036;PMS1003;73029;43.592;1.458;2024-02-15T02:45:23;6.00;5.00;4.00
83036;PMS1003;73029;43.592;1.458;2024-02-15T02:47:50;4.33;4.00;3.00
83036;PMS1003;73029;43.592;1.458;2024-02-15T02:50:16;4.00;4.00;2.67
83036;PMS1003;73029;43.592;1.458;2024-02-15T02:52:42;3.00;3.00;2.00
83036;PMS1003;73029;43.592;1.458;2024-02-15T02:55:09;4.00;4.00;2.33
83036;PMS1003;73029;43.592;1.458;2024-02-15T02:57:35;5.33;5.33;4.00
83036;PMS1003;73029;43.592;1.458;2024-02-15T03:00:07;3.67;3.67;3.33
83036;PMS1003;73029;43.592;1.458;2024-02-15T03:02:38;6.00;5.33;3.67
83036;PMS1003;73029;43.592;1.458;2024-02-15T03:05:03;3.00;3.00;2.67
83036;PMS1003;73029;43.592;1.458;2024-02-15T03:07:34;2.33;2.33;2.00
83036;PMS1003;73029;43.592;1.458;2024-02-15T03:10:00;2.00;2.00;2.00
83036;PMS1003;73029;43.592;1.458;2024-02-15T03:12:27;5.00;3.00;2.00
83036;PMS1003;73029;43.592;1.458;2024-02-15T03:14:54;3.33;3.33;3.00
83036;PMS1003;73029;43.592;1.458;2024-02-15T03:17:20;2.00;2.00;1.33
83036;PMS1003;73029;43.592;1.458;2024-02-15T03:19:45;3.00;3.00;2.67
83036;PMS1003;73029;43.592;1.458;2024-02-15T03:22:13;5.33;4.33;4.00
83036;PMS1003;73029;43.592;1.458;2024-02-15T03:24:39;4.67;4.67;4.67
83036;PMS1003;73029;43.592;1.458;2024-02-15T03:27:05;3.00;3.00;2.00
83036;PMS1003;73029;43.592;1.458;2024-02-15T03:29:30;4.67;4.67;4.00
83036;PMS1003;73029;43.592;1.458;2024-02-15T03:31:55;3.67;3.67;3.00
83036;PMS1003;73029;43.592;1.458;2024-02-15T03:34:21;4.00;4.00;3.33
83036;PMS1003;73029;43.592;1.458;2024-02-15T03:36:48;4.00;4.00;3.00
83036;PMS1003;73029;43.592;1.458;2024-02-15T03:39:18;5.00;5.00;4.00
83036;PMS1003;73029;43.592;1.458;2024-02-15T03:41:44;4.33;4.33;3.00
83036;PMS1003;73029;43.592;1.458;2024-02-15T03:44:11;5.33;5.33;3.00
83036;PMS1003;73029;43.592;1.458;2024-02-15T03:46:37;5.33;4.00;4.00
83036;PMS1003;73029;43.592;1.458;2024-02-15T03:49:02;4.00;3.00;3.00
83036;PMS1003;73029;43.592;1.458;2024-02-15T03:51:28;4.00;4.00;2.00
83036;PMS1003;73029;43.592;1.458;2024-02-15T03:53:54;2.33;2.33;2.00
83036;PMS1003;73029;43.592;1.458;2024-02-15T03:56:19;4.00;4.00;4.00
83036;PMS1003;73029;43.592;1.458;2024-02-15T03:58:46;4.33;4.33;3.00
83036;PMS1003;73029;43.592;1.458;2024-02-15T04:01:11;4.00;4.00;3.67
83036;PMS1003;73029;43.592;1.458;2024-02-15T04:03:40;5.00;4.00;4.00
83036;PMS1003;73029;43.592;1.458;2024-02-15T04:06:05;4.67;4.00;3.00
83036;PMS1003;73029;43.592;1.458;2024-02-15T04:08:31;5.67;4.00;3.00
83036;PMS1003;73029;43.592;1.458;2024-02-15T04:10:56;4.00;4.00;3.00
83036;PMS1003;73029;43.592;1.458;2024-02-15T04:13:22;4.00;4.00;3.00
83036;PMS1003;73029;43.592;1.458;2024-02-15T04:15:48;4.33;4.33;3.00
83036;PMS1003;73029;43.592;1.458;2024-02-15T04:18:15;5.33;5.00;3.00
83036;PMS1003;73029;43.592;1.458;2024-02-15T04:20:41;6.33;6.33;4.00
83036;PMS1003;73029;43.592;1.458;2024-02-15T04:23:10;6.33;4.33;4.00
83036;PMS1003;73029;43.592;1.458;2024-02-15T04:25:36;4.00;4.00;3.00
83036;PMS1003;73029;43.592;1.458;2024-02-15T04:28:02;4.33;3.67;3.00
83036;PMS1003;73029;43.592;1.458;2024-02-15T04:30:29;4.00;3.33;3.00
83036;PMS1003;73029;43.592;1.458;2024-02-15T04:32:55;5.00;5.00;3.00
83036;PMS1003;73029;43.592;1.458;2024-02-15T04:35:21;3.33;3.33;3.00
83036;PMS1003;73029;43.592;1.458;2024-02-15T04:37:47;3.00;3.00;2.00
83036;PMS1003;73029;43.592;1.458;2024-02-15T04:40:14;3.00;3.00;3.00
83036;PMS1003;73029;43.592;1.458;2024-02-15T04:42:39;3.00;3.00;2.00
83036;PMS1003;73029;43.592;1.458;2024-02-15T04:45:08;6.00;6.00;3.67
83036;PMS1003;73029;43.592;1.458;2024-02-15T04:47:36;6.33;4.67;4.00
83036;PMS1003;73029;43.592;1.458;2024-02-15T04:50:01;5.00;4.00;3.00
83036;PMS1003;73029;43.592;1.458;2024-02-15T04:52:27;3.00;3.00;2.67
83036;PMS1003;73029;43.592;1.458;2024-02-15T04:54:53;4.33;3.00;2.33
83036;PMS1003;73029;43.592;1.458;2024-02-15T04:57:23;4.00;2.00;2.00
83036;PMS1003;73029;43.592;1.458;2024-02-15T04:59:49;2.33;2.33;2.00
83036;PMS1003;73029;43.592;1.458;2024-02-15T05:02:14;4.67;4.67;3.00
83036;PMS1003;73029;43.592;1.458;2024-02-15T05:04:40;4.00;4.00;3.00
83036;PMS1003;73029;43.592;1.458;2024-02-15T05:07:07;5.33;4.00;3.00
83036;PMS1003;73029;43.592;1.458;2024-02-15T05:09:34;5.00;5.00;4.00
83036;PMS1003;73029;43.592;1.458;2024-02-15T05:11:59;4.00;4.00;3.00
83036;PMS1003;73029;43.592;1.458;2024-02-15T05:14:27;5.33;4.33;3.00
83036;PMS1003;73029;43.592;1.458;2024-02-15T05:16:53;6.00;5.00;3.00
83036;PMS1003;73029;43.592;1.458;2024-02-15T05:19:18;4.00;3.00;2.67
83036;PMS1003;73029;43.592;1.458;2024-02-15T05:21:44;5.67;5.67;4.00
83036;PMS1003;73029;43.592;1.458;2024-02-15T05:24:14;4.00;3.00;2.00
83036;PMS1003;73029;43.592;1.458;2024-02-15T05:26:41;4.67;4.67;3.33
83036;PMS1003;73029;43.592;1.458;2024-02-15T05:29:26;5.00;3.00;2.67
83036;PMS1003;73029;43.592;1.458;2024-02-15T05:31:52;4.00;4.00;3.00
83036;PMS1003;73029;43.592;1.458;2024-02-15T05:34:19;5.00;5.00;3.00
83036;PMS1003;73029;43.592;1.458;2024-02-15T05:36:45;2.33;2.33;2.00
83036;PMS1003;73029;43.592;1.458;2024-02-15T05:39:10;5.33;3.67;3.00
83036;PMS1003;73029;43.592;1.458;2024-02-15T05:41:36;4.33;3.00;2.00
83036;PMS1003;73029;43.592;1.458;2024-02-15T05:44:02;2.00;2.00;2.00
83036;PMS1003;73029;43.592;1.458;2024-02-15T05:46:31;5.00;5.00;3.67
83036;PMS1003;73029;43.592;1.458;2024-02-15T05:48:56;6.33;3.33;2.67
83036;PMS1003;73029;43.592;1.458;2024-02-15T05:51:22;3.00;3.00;2.67
83036;PMS1003;73029;43.592;1.458;2024-02-15T05:53:48;2.33;2.33;2.00
83036;PMS1003;73029;43.592;1.458;2024-02-15T05:56:14;3.00;3.00;3.00
83036;PMS1003;73029;43.592;1.458;2024-02-15T05:58:41;6.00;4.00;3.00
83036;PMS1003;73029;43.592;1.458;2024-02-15T06:01:07;4.00;4.00;3.00
83036;PMS1003;73029;43.592;1.458;2024-02-15T06:03:35;3.00;3.00;2.00
83036;PMS1003;73029;43.592;1.458;2024-02-15T06:06:04;2.00;2.00;2.00
83036;PMS1003;73029;43.592;1.458;2024-02-15T06:08:33;3.00;3.00;2.67
83036;PMS1003;73029;43.592;1.458;2024-02-15T06:10:59;2.00;2.00;2.00
83036;PMS1003;73029;43.592;1.458;2024-02-15T06:13:25;2.00;2.00;2.00
83036;PMS1003;73029;43.592;1.458;2024-02-15T06:15:51;4.00;4.00;2.00
83036;PMS1003;73029;43.592;1.458;2024-02-15T06:18:20;3.00;2.33;2.00
83036;PMS1003;73029;43.592;1.458;2024-02-15T06:20:53;3.00;3.00;1.67
83036;PMS1003;73029;43.592;1.458;2024-02-15T06:23:18;3.00;3.00;2.00
83036;PMS1003;73029;43.592;1.458;2024-02-15T06:25:47;4.00;3.00;2.00
83036;PMS1003;73029;43.592;1.458;2024-02-15T06:28:13;4.00;2.00;1.33
83036;PMS1003;73029;43.592;1.458;2024-02-15T06:30:59;3.67;3.67;3.33
83036;PMS1003;73029;43.592;1.458;2024-02-15T06:33:43;3.00;3.00;2.00
83036;PMS1003;73029;43.592;1.458;2024-02-15T06:36:26;2.00;2.00;2.00
83036;PMS1003;73029;43.592;1.458;2024-02-15T06:39:10;1.67;1.67;1.33
83036;PMS1003;73029;43.592;1.458;2024-02-15T06:41:54;2.00;2.00;1.00
83036;PMS1003;73029;43.592;1.458;2024-02-15T06:44:21;4.00;4.00;2.00
83036;PMS1003;73029;43.592;1.458;2024-02-15T06:46:48;2.00;2.00;2.00
83036;PMS1003;73029;43.592;1.458;2024-02-15T06:49:15;1.33;1.33;1.00
83036;PMS1003;73029;43.592;1.458;2024-02-15T06:51:40;3.00;3.00;2.00
83036;PMS1003;73029;43.592;1.458;2024-02-15T06:54:06;4.00;4.00;2.00
83036;PMS1003;73029;43.592;1.458;2024-02-15T06:56:35;3.67;3.67;3.00
83036;PMS1003;73029;43.592;1.458;2024-02-15T06:59:02;4.00;3.00;2.00
83036;PMS1003;73029;43.592;1.458;2024-02-15T07:01:28;2.00;2.00;2.00
83036;PMS1003;73029;43.592;1.458;2024-02-15T07:03:53;2.00;2.00;2.00
83036;PMS1003;73029;43.592;1.458;2024-02-15T07:06:20;2.00;2.00;2.00
83036;PMS1003;73029;43.592;1.458;2024-02-15T07:08:46;3.33;3.33;3.00
83036;PMS1003;73029;43.592;1.458;2024-02-15T07:11:13;2.00;2.00;1.00
83036;PMS1003;73029;43.592;1.458;2024-02-15T07:13:38;3.00;3.00;2.33
83036;PMS1003;73029;43.592;1.458;2024-02-15T07:16:07;3.00;3.00;1.33
83036;PMS1003;73029;43.592;1.458;2024-02-15T07:18:32;3.00;2.00;1.67
83036;PMS1003;73029;43.592;1.458;2024-02-15T07:20:58;3.67;3.67;3.00
83036;PMS1003;73029;43.592;1.458;2024-02-15T07:23:26;4.33;3.67;2.00
83036;PMS1003;73029;43.592;1.458;2024-02-15T07:25:51;3.33;3.00;2.00
83036;PMS1003;73029;43.592;1.458;2024-02-15T07:28:18;3.00;3.00;3.00
83036;PMS1003;73029;43.592;1.458;2024-02-15T07:30:45;4.00;4.00;3.00
83036;PMS1003;73029;43.592;1.458;2024-02-15T07:33:13;4.00;4.00;3.00
83036;PMS1003;73029;43.592;1.458;2024-02-15T07:35:42;5.00;2.33;2.00
83036;PMS1003;73029;43.592;1.458;2024-02-15T07:38:08;3.00;3.00;1.67
83036;PMS1003;73029;43.592;1.458;2024-02-15T07:40:35;4.00;4.00;2.33
83036;PMS1003;73029;43.592;1.458;2024-02-15T07:43:00;2.33;2.33;2.00
83036;PMS1003;73029;43.592;1.458;2024-02-15T07:45:28;3.00;3.00;2.00
83036;PMS1003;73029;43.592;1.458;2024-02-15T07:47:54;4.00;3.00;2.00
83036;PMS1003;73029;43.592;1.458;2024-02-15T07:50:20;2.67;2.33;1.67
83036;PMS1003;73029;43.592;1.458;2024-02-15T07:52:48;2.00;2.00;1.33
83036;PMS1003;73029;43.592;1.458;2024-02-15T07:55:14;2.67;2.67;2.00
83036;PMS1003;73029;43.592;1.458;2024-02-15T07:57:39;1.00;0.00;0.00
83036;PMS1003;73029;43.592;1.458;2024-02-15T08:00:05;4.00;3.00;3.00
83036;PMS1003;73029;43.592;1.458;2024-02-15T08:02:35;1.33;1.33;1.00
83036;PMS1003;73029;43.592;1.458;2024-02-15T08:05:05;2.00;2.00;1.33
83036;PMS1003;73029;43.592;1.458;2024-02-15T08:07:35;2.00;2.00;1.33
83036;PMS1003;73029;43.592;1.458;2024-02-15T08:10:01;3.00;3.00;1.00
83036;PMS1003;73029;43.592;1.458;2024-02-15T08:12:28;1.67;1.67;1.00
83036;PMS1003;73029;43.592;1.458;2024-02-15T08:14:53;2.00;2.00;2.00
83036;PMS1003;73029;43.592;1.458;2024-02-15T08:17:19;3.67;3.67;2.67
83036;PMS1003;73029;43.592;1.458;2024-02-15T08:19:44;3.33;3.33;3.00
83036;PMS1003;73029;43.592;1.458;2024-02-15T08:22:10;3.67;3.33;2.33
83036;PMS1003;73029;43.592;1.458;2024-02-15T08:24:35;2.67;2.33;2.00
83036;PMS1003;73029;43.592;1.458;2024-02-15T08:27:01;2.67;2.67;2.67
83036;PMS1003;73029;43.592;1.458;2024-02-15T08:29:28;3.00;3.00;2.00
83036;PMS1003;73029;43.592;1.458;2024-02-15T08:31:53;2.00;2.00;1.33
83036;PMS1003;73029;43.592;1.458;2024-02-15T08:34:20;4.67;4.67;3.00
83036;PMS1003;73029;43.592;1.458;2024-02-15T08:36:45;4.00;4.00;3.00
83036;PMS1003;73029;43.592;1.458;2024-02-15T08:39:12;2.00;2.00;2.00
83036;PMS1003;73029;43.592;1.458;2024-02-15T08:41:38;4.00;4.00;3.00
83036;PMS1003;73029;43.592;1.458;2024-02-15T08:44:04;3.00;3.00;2.67
83036;PMS1003;73029;43.592;1.458;2024-02-15T08:46:34;4.67;4.67;4.00
83036;PMS1003;73029;43.592;1.458;2024-02-15T08:49:01;2.00;2.00;2.00
83036;PMS1003;73029;43.592;1.458;2024-02-15T08:51:28;5.33;3.67;3.00
83036;PMS1003;73029;43.592;1.458;2024-02-15T08:53:55;2.00;2.00;1.33
83036;PMS1003;73029;43.592;1.458;2024-02-15T08:56:21;2.33;2.33;2.00
83036;PMS1003;73029;43.592;1.458;2024-02-15T08:58:48;3.00;3.00;2.00
83036;PMS1003;73029;43.592;1.458;2024-02-15T09:01:13;3.67;3.67;2.33
83036;PMS1003;73029;43.592;1.458;2024-02-15T09:03:39;5.00;3.67;3.00
83036;PMS1003;73029;43.592;1.458;2024-02-15T09:06:04;5.00;5.00;3.00
83036;PMS1003;73029;43.592;1.458;2024-02-15T09:08:30;3.00;3.00;2.00
83036;PMS1003;73029;43.592;1.458;2024-02-15T09:10:55;3.00;3.00;3.00
83036;PMS1003;73029;43.592;1.458;2024-02-15T09:13:23;4.00;4.00;3.00
83036;PMS1003;73029;43.592;1.458;2024-02-15T09:15:48;3.67;3.00;2.00
83036;PMS1003;73029;43.592;1.458;2024-02-15T09:18:15;4.33;3.67;3.00
83036;PMS1003;73029;43.592;1.458;2024-02-15T09:20:42;2.67;2.67;2.00
83036;PMS1003;73029;43.592;1.458;2024-02-15T09:23:10;3.67;3.67;2.00
83036;PMS1003;73029;43.592;1.458;2024-02-15T09:25:40;3.00;3.00;3.00
83036;PMS1003;73029;43.592;1.458;2024-02-15T09:28:09;3.00;3.00;2.33
83036;PMS1003;73029;43.592;1.458;2024-02-15T09:30:35;4.00;3.00;2.00
83036;PMS1003;73029;43.592;1.458;2024-02-15T09:33:01;5.00;4.67;3.67
83036;PMS1003;73029;43.592;1.458;2024-02-15T09:35:30;3.33;3.33;2.67
83036;PMS1003;73029;43.592;1.458;2024-02-15T09:37:55;4.00;4.00;2.00
83036;PMS1003;73029;43.592;1.458;2024-02-15T09:40:21;1.00;1.00;1.00
83036;PMS1003;73029;43.592;1.458;2024-02-15T09:42:50;3.33;3.00;2.00
83036;PMS1003;73029;43.592;1.458;2024-02-15T09:45:17;4.00;4.00;2.00
83036;PMS1003;73029;43.592;1.458;2024-02-15T09:47:45;5.00;3.00;3.00
83036;PMS1003;73029;43.592;1.458;2024-02-15T09:50:15;6.00;5.00;2.00
83036;PMS1003;73029;43.592;1.458;2024-02-15T09:52:51;3.33;3.33;2.67
83036;PMS1003;73029;43.592;1.458;2024-02-15T09:55:18;4.00;4.00;3.00
83036;PMS1003;73029;43.592;1.458;2024-02-15T09:57:44;3.67;3.67;2.00
83036;PMS1003;73029;43.592;1.458;2024-02-15T10:00:11;3.67;3.67;3.00
83036;PMS1003;73029;43.592;1.458;2024-02-15T10:02:41;5.33;4.67;4.00
83036;PMS1003;73029;43.592;1.458;2024-02-15T10:05:11;3.00;3.00;2.00
83036;PMS1003;73029;43.592;1.458;2024-02-15T10:07:37;4.33;4.33;3.00
83036;PMS1003;73029;43.592;1.458;2024-02-15T10:10:23;4.67;4.67;4.00
83036;PMS1003;73029;43.592;1.458;2024-02-15T10:12:50;4.00;4.00;3.00
83036;PMS1003;73029;43.592;1.458;2024-02-15T10:17:57;3.00;3.00;3.00
83036;PMS1003;73029;43.592;1.458;2024-02-15T10:20:24;6.33;6.00;4.00
83036;PMS1003;73029;43.592;1.458;2024-02-15T10:25:25;4.00;2.67;2.00
83036;PMS1003;73029;43.592;1.458;2024-02-15T10:27:51;5.33;5.33;3.00
83036;PMS1003;73029;43.592;1.458;2024-02-15T10:30:26;5.33;5.33;3.67
83036;PMS1003;73029;43.592;1.458;2024-02-15T10:32:52;6.67;6.67;5.67
83036;PMS1003;73029;43.592;1.458;2024-02-15T10:35:21;5.67;5.67;5.00
83036;PMS1003;73029;43.592;1.458;2024-02-15T10:37:47;6.33;5.00;3.33
83036;PMS1003;73029;43.592;1.458;2024-02-15T10:40:17;5.67;5.67;5.00
83036;PMS1003;73029;43.592;1.458;2024-02-15T10:42:43;3.67;3.67;3.00
83036;PMS1003;73029;43.592;1.458;2024-02-15T10:45:16;5.00;5.00;3.00
83036;PMS1003;73029;43.592;1.458;2024-02-15T10:47:44;4.00;4.00;3.67
83036;PMS1003;73029;43.592;1.458;2024-02-15T10:50:11;4.33;3.00;3.00
83036;PMS1003;73029;43.592;1.458;2024-02-15T10:52:37;2.00;2.00;2.00
83036;PMS1003;73029;43.592;1.458;2024-02-15T10:55:18;4.00;3.00;2.00
83036;PMS1003;73029;43.592;1.458;2024-02-15T10:57:51;0.67;0.67;0.67
83036;PMS1003;73029;43.592;1.458;2024-02-15T11:00:17;2.00;2.00;1.00
83036;PMS1003;73029;43.592;1.458;2024-02-15T11:03:02;3.67;3.67;3.00
83036;PMS1003;73029;43.592;1.458;2024-02-15T11:05:36;3.00;3.00;2.67
83036;PMS1003;73029;43.592;1.458;2024-02-15T11:08:06;4.00;4.00;3.00
83036;PMS1003;73029;43.592;1.458;2024-02-15T11:10:33;2.67;2.67;1.67
83036;PMS1003;73029;43.592;1.458;2024-02-15T11:13:00;2.67;2.67;2.00
83036;PMS1003;73029;43.592;1.458;2024-02-15T11:18:07;4.00;4.00;3.00
83036;PMS1003;73029;43.592;1.458;2024-02-15T11:22:58;3.67;2.67;2.67
83036;PMS1003;73029;43.592;1.458;2024-02-15T11:25:31;3.67;3.67;2.67
83036;PMS1003;73029;43.592;1.458;2024-02-15T11:31:03;5.00;3.00;3.00
83036;PMS1003;73029;43.592;1.458;2024-02-15T11:33:32;3.33;3.33;3.00
83036;PMS1003;73029;43.592;1.458;2024-02-15T11:38:27;3.33;3.33;2.67
83036;PMS1003;73029;43.592;1.458;2024-02-15T11:46:20;2.33;2.33;1.67
83036;PMS1003;73029;43.592;1.458;2024-02-15T11:48:46;1.00;1.00;1.00
83036;PMS1003;73029;43.592;1.458;2024-02-15T11:54:08;0.33;0.33;0.00
83036;PMS1003;73029;43.592;1.458;2024-02-15T11:56:55;3.00;2.00;1.67
83036;PMS1003;73029;43.592;1.458;2024-02-15T11:59:41;1.00;1.00;0.50
83036;PMS1003;73029;43.592;1.458;2024-02-15T12:02:37;1.67;1.67;0.67
83036;PMS1003;73029;43.592;1.458;2024-02-15T12:05:21;1.33;1.33;0.67
83036;PMS1003;73029;43.592;1.458;2024-02-15T12:08:05;1.67;1.67;1.67
83036;PMS1003;73029;43.592;1.458;2024-02-15T12:10:59;1.67;1.00;1.00
83036;PMS1003;73029;43.592;1.458;2024-02-15T12:13:43;3.67;3.00;2.00
83036;PMS1003;73029;43.592;1.458;2024-02-15T12:16:27;0.67;0.67;0.67
83036;PMS1003;73029;43.592;1.458;2024-02-15T12:19:11;3.00;3.00;2.33
83036;PMS1003;73029;43.592;1.458;2024-02-15T12:21:36;2.33;2.33;2.00
83036;PMS1003;73029;43.592;1.458;2024-02-15T12:24:06;2.67;2.67;2.00
83036;PMS1003;73029;43.592;1.458;2024-02-15T12:26:32;2.00;2.00;1.67
83036;PMS1003;73029;43.592;1.458;2024-02-15T12:28:59;2.00;2.00;1.67
83036;PMS1003;73029;43.592;1.458;2024-02-15T12:31:26;2.00;2.00;1.00
83036;PMS1003;73029;43.592;1.458;2024-02-15T12:33:59;2.00;2.00;1.67
83036;PMS1003;73029;43.592;1.458;2024-02-15T12:36:35;4.33;2.67;2.67
83036;PMS1003;73029;43.592;1.458;2024-02-15T12:39:05;3.00;2.67;2.00
83036;PMS1003;73029;43.592;1.458;2024-02-15T12:41:42;1.67;1.67;1.67
83036;PMS1003;73029;43.592;1.458;2024-02-15T12:44:15;3.00;1.67;1.00
83036;PMS1003;73029;43.592;1.458;2024-02-15T12:46:41;2.00;2.00;2.00
83036;PMS1003;73029;43.592;1.458;2024-02-15T12:49:10;2.00;2.00;1.67
83036;PMS1003;73029;43.592;1.458;2024-02-15T12:51:53;2.00;1.67;1.33
83036;PMS1003;73029;43.592;1.458;2024-02-15T12:54:20;2.00;1.67;1.67
83036;PMS1003;73029;43.592;1.458;2024-02-15T12:56:46;2.00;2.00;1.67
83036;PMS1003;73029;43.592;1.458;2024-02-15T12:59:18;2.67;2.00;1.67
83036;PMS1003;73029;43.592;1.458;2024-02-15T13:01:48;3.00;2.00;1.00
83036;PMS1003;73029;43.592;1.458;2024-02-15T13:04:23;2.67;1.67;0.67
83036;PMS1003;73029;43.592;1.458;2024-02-15T13:06:53;1.00;1.00;0.67
83036;PMS1003;73029;43.592;1.458;2024-02-15T13:09:19;3.00;2.00;2.00
83036;PMS1003;73029;43.592;1.458;2024-02-15T13:11:47;2.67;0.67;0.67
83036;PMS1003;73029;43.592;1.458;2024-02-15T13:14:12;3.00;3.00;2.00
83036;PMS1003;73029;43.592;1.458;2024-02-15T13:16:38;2.67;2.67;1.67
83036;PMS1003;73029;43.592;1.458;2024-02-15T13:19:03;0.67;0.67;0.33
83036;PMS1003;73029;43.592;1.458;2024-02-15T13:21:32;1.67;1.67;1.00
83036;PMS1003;73029;43.592;1.458;2024-02-15T13:23:59;2.00;2.00;1.00
83036;PMS1003;73029;43.592;1.458;2024-02-15T13:26:30;2.00;2.00;1.00
83036;PMS1003;73029;43.592;1.458;2024-02-15T13:28:55;0.67;0.67;0.00
83036;PMS1003;73029;43.592;1.458;2024-02-15T13:31:21;1.67;1.67;1.67
83036;PMS1003;73029;43.592;1.458;2024-02-15T13:33:47;3.33;1.67;1.00
83036;PMS1003;73029;43.592;1.458;2024-02-15T13:36:13;1.67;1.67;1.00
83036;PMS1003;73029;43.592;1.458;2024-02-15T13:38:40;1.33;1.33;1.00
83036;PMS1003;73029;43.592;1.458;2024-02-15T13:41:07;1.67;1.67;1.67
83036;PMS1003;73029;43.592;1.458;2024-02-15T13:43:33;1.00;1.00;1.00
83036;PMS1003;73029;43.592;1.458;2024-02-15T13:45:59;3.00;2.00;1.00
83036;PMS1003;73029;43.592;1.458;2024-02-15T13:48:27;1.67;1.67;1.00
83036;PMS1003;73029;43.592;1.458;2024-02-15T13:50:55;3.00;2.50;2.00
83036;PMS1003;73029;43.592;1.458;2024-02-15T13:53:20;2.00;2.00;1.00
83036;PMS1003;73029;43.592;1.458;2024-02-15T13:55:46;2.00;2.00;1.67
83036;PMS1003;73029;43.592;1.458;2024-02-15T13:58:12;2.67;2.67;1.67
83036;PMS1003;73029;43.592;1.458;2024-02-15T14:00:39;4.00;3.00;2.00
83036;PMS1003;73029;43.592;1.458;2024-02-15T14:03:07;1.00;1.00;0.33
83036;PMS1003;73029;43.592;1.458;2024-02-15T14:05:35;1.67;1.67;1.33
83036;PMS1003;73029;43.592;1.458;2024-02-15T14:08:02;1.33;1.33;0.67
83036;PMS1003;73029;43.592;1.458;2024-02-15T14:10:29;1.67;1.67;1.00
83036;PMS1003;73029;43.592;1.458;2024-02-15T14:12:57;4.00;3.00;1.67
83036;PMS1003;73029;43.592;1.458;2024-02-15T14:15:33;0.67;0.67;0.67
83036;PMS1003;73029;43.592;1.458;2024-02-15T14:18:02;1.00;1.00;1.00
83036;PMS1003;73029;43.592;1.458;2024-02-15T14:20:31;1.00;1.00;1.00
83036;PMS1003;73029;43.592;1.458;2024-02-15T14:22:57;1.00;1.00;1.00
83036;PMS1003;73029;43.592;1.458;2024-02-15T14:25:23;2.00;2.00;1.00
83036;PMS1003;73029;43.592;1.458;2024-02-15T14:27:50;1.00;1.00;1.00
83036;PMS1003;73029;43.592;1.458;2024-02-15T14:30:17;2.00;2.00;1.00
83036;PMS1003;73029;43.592;1.458;2024-02-15T14:33:02;1.00;1.00;1.00
83036;PMS1003;73029;43.592;1.458;2024-02-15T14:35:36;1.33;1.33;0.67
83036;PMS1003;73029;43.592;1.458;2024-02-15T14:38:04;2.00;2.00;1.00
83036;PMS1003;73029;43.592;1.458;2024-02-15T14:40:33;2.00;1.00;1.00
83036;PMS1003;73029;43.592;1.458;2024-02-15T14:43:01;1.33;1.33;1.00
83036;PMS1003;73029;43.592;1.458;2024-02-15T14:45:27;2.00;1.00;1.00
83036;PMS1003;73029;43.592;1.458;2024-02-15T14:47:54;1.00;1.00;1.00
83036;PMS1003;73029;43.592;1.458;2024-02-15T14:50:19;2.00;2.00;1.00
83036;PMS1003;73029;43.592;1.458;2024-02-15T14:52:46;0.67;0.67;0.67